sensor_id;sensor_type;location;lat;lon;timestamp;temperature;humidity
13642;DHT22;6894;52.196;9.904;2023-07-22T00:02:03;14.10;99.90
13642;DHT22;6894;52.196;9.904;2023-07-22T00:04:30;14.10;99.90
13642;DHT22;6894;52.196;9.904;2023-07-22T00:06:57;14.20;99.90
13642;DHT22;6894;52.196;9.904;2023-07-22T00:09:26;14.10;99.90
13642;DHT22;6894;52.196;9.904;2023-07-22T00:11:52;14.20;99.90
13642;DHT22;6894;52.196;9.904;2023-07-22T00:14:20;14.20;99.90
13642;DHT22;6894;52.196;9.904;2023-07-22T00:16:46;14.20;99.90
13642;DHT22;6894;52.196;9.904;2023-07-22T00:19:13;14.20;99.90
13642;DHT22;6894;52.196;9.904;2023-07-22T00:21:40;14.20;99.90
13642;DHT22;6894;52.196;9.904;2023-07-22T00:24:07;14.20;99.90
13642;DHT22;6894;52.196;9.904;2023-07-22T00:26:35;14.20;99.90
13642;DHT22;6894;52.196;9.904;2023-07-22T00:29:02;14.20;99.90
13642;DHT22;6894;52.196;9.904;2023-07-22T00:31:30;14.20;99.90
13642;DHT22;6894;52.196;9.904;2023-07-22T00:33:57;14.20;99.90
13642;DHT22;6894;52.196;9.904;2023-07-22T00:36:23;14.30;99.90
13642;DHT22;6894;52.196;9.904;2023-07-22T00:38:50;14.20;99.90
13642;DHT22;6894;52.196;9.904;2023-07-22T00:41:18;14.20;99.90
13642;DHT22;6894;52.196;9.904;2023-07-22T00:43:46;14.20;99.90
13642;DHT22;6894;52.196;9.904;2023-07-22T00:46:13;14.20;99.90
13642;DHT22;6894;52.196;9.904;2023-07-22T00:48:40;14.20;99.90
13642;DHT22;6894;52.196;9.904;2023-07-22T00:51:08;14.40;99.90
13642;DHT22;6894;52.196;9.904;2023-07-22T00:53:35;14.20;99.90
13642;DHT22;6894;52.196;9.904;2023-07-22T00:56:01;14.20;99.90
13642;DHT22;6894;52.196;9.904;2023-07-22T00:58:28;14.20;99.90
13642;DHT22;6894;52.196;9.904;2023-07-22T01:00:56;14.20;99.90
13642;DHT22;6894;52.196;9.904;2023-07-22T01:03:23;14.10;99.90
13642;DHT22;6894;52.196;9.904;2023-07-22T01:05:53;14.10;99.90
13642;DHT22;6894;52.196;9.904;2023-07-22T01:08:20;14.10;99.90
13642;DHT22;6894;52.196;9.904;2023-07-22T01:10:47;14.00;99.90
13642;DHT22;6894;52.196;9.904;2023-07-22T01:13:14;14.00;99.90
13642;DHT22;6894;52.196;9.904;2023-07-22T01:15:41;13.90;99.90
13642;DHT22;6894;52.196;9.904;2023-07-22T01:18:09;13.90;99.90
13642;DHT22;6894;52.196;9.904;2023-07-22T01:20:37;13.90;99.90
13642;DHT22;6894;52.196;9.904;2023-07-22T01:23:06;13.90;99.90
13642;DHT22;6894;52.196;9.904;2023-07-22T01:25:33;13.90;99.90
13642;DHT22;6894;52.196;9.904;2023-07-22T01:28:00;13.80;99.90
13642;DHT22;6894;52.196;9.904;2023-07-22T01:30:26;14.00;99.90
13642;DHT22;6894;52.196;9.904;2023-07-22T01:32:53;13.80;99.90
13642;DHT22;6894;52.196;9.904;2023-07-22T01:35:20;13.70;99.90
13642;DHT22;6894;52.196;9.904;2023-07-22T01:37:47;13.80;99.90
13642;DHT22;6894;52.196;9.904;2023-07-22T01:40:15;13.70;99.90
13642;DHT22;6894;52.196;9.904;2023-07-22T01:42:43;13.70;99.90
13642;DHT22;6894;52.196;9.904;2023-07-22T01:45:10;13.70;99.90
13642;DHT22;6894;52.196;9.904;2023-07-22T01:47:38;13.70;99.90
13642;DHT22;6894;52.196;9.904;2023-07-22T01:50:06;13.70;99.90
13642;DHT22;6894;52.196;9.904;2023-07-22T01:52:33;13.60;99.90
13642;DHT22;6894;52.196;9.904;2023-07-22T01:54:59;13.60;99.90
13642;DHT22;6894;52.196;9.904;2023-07-22T01:57:27;13.60;99.90
13642;DHT22;6894;52.196;9.904;2023-07-22T01:59:54;13.50;99.90
13642;DHT22;6894;52.196;9.904;2023-07-22T02:02:21;13.50;99.90
13642;DHT22;6894;52.196;9.904;2023-07-22T02:04:48;13.50;99.90
13642;DHT22;6894;52.196;9.904;2023-07-22T02:07:14;13.50;99.90
13642;DHT22;6894;52.196;9.904;2023-07-22T02:09:41;13.40;99.90
13642;DHT22;6894;52.196;9.904;2023-07-22T02:12:08;13.40;99.90
13642;DHT22;6894;52.196;9.904;2023-07-22T02:14:37;13.40;99.90
13642;DHT22;6894;52.196;9.904;2023-07-22T02:17:04;13.40;99.90
13642;DHT22;6894;52.196;9.904;2023-07-22T02:19:31;13.30;99.90
13642;DHT22;6894;52.196;9.904;2023-07-22T02:21:58;13.30;99.90
13642;DHT22;6894;52.196;9.904;2023-07-22T02:24:24;13.30;99.90
13642;DHT22;6894;52.196;9.904;2023-07-22T02:26:51;13.30;99.90
13642;DHT22;6894;52.196;9.904;2023-07-22T02:29:18;13.30;99.90
13642;DHT22;6894;52.196;9.904;2023-07-22T02:31:46;13.30;99.90
13642;DHT22;6894;52.196;9.904;2023-07-22T02:34:13;13.30;99.90
13642;DHT22;6894;52.196;9.904;2023-07-22T02:36:39;13.30;99.90
13642;DHT22;6894;52.196;9.904;2023-07-22T02:39:06;13.30;99.90
13642;DHT22;6894;52.196;9.904;2023-07-22T02:41:35;13.30;99.90
13642;DHT22;6894;52.196;9.904;2023-07-22T02:44:02;13.30;99.90
13642;DHT22;6894;52.196;9.904;2023-07-22T02:46:29;13.30;99.90
13642;DHT22;6894;52.196;9.904;2023-07-22T02:48:58;13.30;99.90
13642;DHT22;6894;52.196;9.904;2023-07-22T02:51:25;13.20;99.90
13642;DHT22;6894;52.196;9.904;2023-07-22T02:53:52;13.20;99.90
13642;DHT22;6894;52.196;9.904;2023-07-22T02:56:19;13.20;99.90
13642;DHT22;6894;52.196;9.904;2023-07-22T02:58:45;13.20;99.90
13642;DHT22;6894;52.196;9.904;2023-07-22T03:01:13;13.30;99.90
13642;DHT22;6894;52.196;9.904;2023-07-22T03:03:40;13.20;99.90
13642;DHT22;6894;52.196;9.904;2023-07-22T03:06:08;13.20;99.90
13642;DHT22;6894;52.196;9.904;2023-07-22T03:08:35;13.20;99.90
13642;DHT22;6894;52.196;9.904;2023-07-22T03:11:01;13.10;99.90
13642;DHT22;6894;52.196;9.904;2023-07-22T03:13:29;13.10;99.90
13642;DHT22;6894;52.196;9.904;2023-07-22T03:15:56;13.30;99.90
13642;DHT22;6894;52.196;9.904;2023-07-22T03:18:23;13.10;99.90
13642;DHT22;6894;52.196;9.904;2023-07-22T03:20:49;13.10;99.90
13642;DHT22;6894;52.196;9.904;2023-07-22T03:23:18;13.10;99.90
13642;DHT22;6894;52.196;9.904;2023-07-22T03:25:46;13.00;99.90
13642;DHT22;6894;52.196;9.904;2023-07-22T03:28:13;13.00;99.90
13642;DHT22;6894;52.196;9.904;2023-07-22T03:30:40;13.00;99.90
13642;DHT22;6894;52.196;9.904;2023-07-22T03:33:06;13.00;99.90
13642;DHT22;6894;52.196;9.904;2023-07-22T03:35:33;13.00;99.90
13642;DHT22;6894;52.196;9.904;2023-07-22T03:38:00;12.90;99.90
13642;DHT22;6894;52.196;9.904;2023-07-22T03:40:28;12.90;99.90
13642;DHT22;6894;52.196;9.904;2023-07-22T03:42:56;13.00;99.90
13642;DHT22;6894;52.196;9.904;2023-07-22T03:45:23;12.90;99.90
13642;DHT22;6894;52.196;9.904;2023-07-22T03:47:51;12.90;99.90
13642;DHT22;6894;52.196;9.904;2023-07-22T03:50:18;12.90;99.90
13642;DHT22;6894;52.196;9.904;2023-07-22T03:52:45;12.90;99.90
13642;DHT22;6894;52.196;9.904;2023-07-22T03:55:11;12.90;99.90
13642;DHT22;6894;52.196;9.904;2023-07-22T03:57:40;13.00;99.90
13642;DHT22;6894;52.196;9.904;2023-07-22T04:00:07;13.00;99.90
13642;DHT22;6894;52.196;9.904;2023-07-22T04:02:35;13.00;99.90
13642;DHT22;6894;52.196;9.904;2023-07-22T04:05:03;13.00;99.90
13642;DHT22;6894;52.196;9.904;2023-07-22T04:07:29;13.10;99.90
13642;DHT22;6894;52.196;9.904;2023-07-22T04:09:56;13.10;99.90
13642;DHT22;6894;52.196;9.904;2023-07-22T04:12:23;13.10;99.90
13642;DHT22;6894;52.196;9.904;2023-07-22T04:14:51;13.10;99.90
13642;DHT22;6894;52.196;9.904;2023-07-22T04:17:18;13.20;99.90
13642;DHT22;6894;52.196;9.904;2023-07-22T04:19:44;13.20;99.90
13642;DHT22;6894;52.196;9.904;2023-07-22T04:22:11;13.20;99.90
13642;DHT22;6894;52.196;9.904;2023-07-22T04:24:38;13.30;99.90
13642;DHT22;6894;52.196;9.904;2023-07-22T04:27:06;13.30;99.90
13642;DHT22;6894;52.196;9.904;2023-07-22T04:29:32;13.40;99.90
13642;DHT22;6894;52.196;9.904;2023-07-22T04:32:01;13.40;99.90
13642;DHT22;6894;52.196;9.904;2023-07-22T04:34:29;13.50;99.90
13642;DHT22;6894;52.196;9.904;2023-07-22T04:36:56;13.60;99.90
13642;DHT22;6894;52.196;9.904;2023-07-22T04:39:23;13.60;99.90
13642;DHT22;6894;52.196;9.904;2023-07-22T04:41:50;13.70;99.90
13642;DHT22;6894;52.196;9.904;2023-07-22T04:44:16;13.70;99.90
13642;DHT22;6894;52.196;9.904;2023-07-22T04:46:43;13.80;99.90
13642;DHT22;6894;52.196;9.904;2023-07-22T04:49:12;13.80;99.90
13642;DHT22;6894;52.196;9.904;2023-07-22T04:51:38;13.90;99.90
13642;DHT22;6894;52.196;9.904;2023-07-22T04:54:05;13.90;99.90
13642;DHT22;6894;52.196;9.904;2023-07-22T04:56:32;14.00;99.90
13642;DHT22;6894;52.196;9.904;2023-07-22T04:58:59;14.00;99.90
13642;DHT22;6894;52.196;9.904;2023-07-22T05:01:25;14.00;99.90
13642;DHT22;6894;52.196;9.904;2023-07-22T05:03:52;14.10;99.90
13642;DHT22;6894;52.196;9.904;2023-07-22T05:06:21;14.20;99.90
13642;DHT22;6894;52.196;9.904;2023-07-22T05:08:49;14.10;99.90
13642;DHT22;6894;52.196;9.904;2023-07-22T05:11:16;14.30;99.90
13642;DHT22;6894;52.196;9.904;2023-07-22T05:13:43;14.30;99.90
13642;DHT22;6894;52.196;9.904;2023-07-22T05:16:10;14.40;99.90
13642;DHT22;6894;52.196;9.904;2023-07-22T05:18:37;14.40;99.90
13642;DHT22;6894;52.196;9.904;2023-07-22T05:21:04;14.50;99.90
13642;DHT22;6894;52.196;9.904;2023-07-22T05:23:32;14.50;99.90
13642;DHT22;6894;52.196;9.904;2023-07-22T05:25:59;14.60;99.90
13642;DHT22;6894;52.196;9.904;2023-07-22T05:28:25;14.70;99.90
13642;DHT22;6894;52.196;9.904;2023-07-22T05:30:52;14.70;99.90
13642;DHT22;6894;52.196;9.904;2023-07-22T05:33:21;14.70;99.90
13642;DHT22;6894;52.196;9.904;2023-07-22T05:35:47;14.80;99.90
13642;DHT22;6894;52.196;9.904;2023-07-22T05:38:14;14.80;99.90
13642;DHT22;6894;52.196;9.904;2023-07-22T05:40:43;14.90;99.90
13642;DHT22;6894;52.196;9.904;2023-07-22T05:43:10;15.00;99.90
13642;DHT22;6894;52.196;9.904;2023-07-22T05:45:36;15.10;99.90
13642;DHT22;6894;52.196;9.904;2023-07-22T05:48:04;15.20;99.90
13642;DHT22;6894;52.196;9.904;2023-07-22T05:50:31;15.30;99.90
13642;DHT22;6894;52.196;9.904;2023-07-22T05:52:57;15.50;99.90
13642;DHT22;6894;52.196;9.904;2023-07-22T05:55:24;15.70;99.90
13642;DHT22;6894;52.196;9.904;2023-07-22T05:57:53;15.70;99.90
13642;DHT22;6894;52.196;9.904;2023-07-22T06:00:20;15.80;99.90
13642;DHT22;6894;52.196;9.904;2023-07-22T06:02:47;15.80;99.90
13642;DHT22;6894;52.196;9.904;2023-07-22T06:05:15;15.90;99.90
13642;DHT22;6894;52.196;9.904;2023-07-22T06:07:41;15.90;99.90
13642;DHT22;6894;52.196;9.904;2023-07-22T06:10:08;15.90;99.90
13642;DHT22;6894;52.196;9.904;2023-07-22T06:12:35;16.00;99.90
13642;DHT22;6894;52.196;9.904;2023-07-22T06:15:04;15.90;99.90
13642;DHT22;6894;52.196;9.904;2023-07-22T06:17:31;16.00;99.90
13642;DHT22;6894;52.196;9.904;2023-07-22T06:19:58;16.00;99.90
13642;DHT22;6894;52.196;9.904;2023-07-22T06:22:25;16.10;99.90
13642;DHT22;6894;52.196;9.904;2023-07-22T06:24:51;16.10;99.90
13642;DHT22;6894;52.196;9.904;2023-07-22T06:27:19;16.10;99.90
13642;DHT22;6894;52.196;9.904;2023-07-22T06:29:45;16.20;99.90
13642;DHT22;6894;52.196;9.904;2023-07-22T06:32:13;16.30;99.90
13642;DHT22;6894;52.196;9.904;2023-07-22T06:34:40;16.40;99.90
13642;DHT22;6894;52.196;9.904;2023-07-22T06:37:07;16.50;99.90
13642;DHT22;6894;52.196;9.904;2023-07-22T06:39:34;16.50;99.90
13642;DHT22;6894;52.196;9.904;2023-07-22T06:42:00;16.40;99.90
13642;DHT22;6894;52.196;9.904;2023-07-22T06:44:27;16.50;99.90
13642;DHT22;6894;52.196;9.904;2023-07-22T06:46:54;16.60;99.90
13642;DHT22;6894;52.196;9.904;2023-07-22T06:49:22;16.70;99.90
13642;DHT22;6894;52.196;9.904;2023-07-22T06:51:49;16.70;99.90
13642;DHT22;6894;52.196;9.904;2023-07-22T06:54:17;16.60;99.90
13642;DHT22;6894;52.196;9.904;2023-07-22T06:56:44;16.60;99.90
13642;DHT22;6894;52.196;9.904;2023-07-22T06:59:10;16.50;99.90
13642;DHT22;6894;52.196;9.904;2023-07-22T07:01:37;16.50;99.90
13642;DHT22;6894;52.196;9.904;2023-07-22T07:04:04;16.60;99.90
13642;DHT22;6894;52.196;9.904;2023-07-22T07:06:32;16.60;99.90
13642;DHT22;6894;52.196;9.904;2023-07-22T07:08:59;16.60;99.90
13642;DHT22;6894;52.196;9.904;2023-07-22T07:11:27;16.70;99.90
13642;DHT22;6894;52.196;9.904;2023-07-22T07:13:54;16.60;99.90
13642;DHT22;6894;52.196;9.904;2023-07-22T07:16:22;16.40;99.90
13642;DHT22;6894;52.196;9.904;2023-07-22T07:18:49;16.50;99.90
13642;DHT22;6894;52.196;9.904;2023-07-22T07:21:16;16.50;99.90
13642;DHT22;6894;52.196;9.904;2023-07-22T07:23:44;16.60;99.90
13642;DHT22;6894;52.196;9.904;2023-07-22T07:26:11;16.50;99.90
13642;DHT22;6894;52.196;9.904;2023-07-22T07:28:38;16.30;99.90
13642;DHT22;6894;52.196;9.904;2023-07-22T07:31:05;16.40;99.90
13642;DHT22;6894;52.196;9.904;2023-07-22T07:33:32;16.40;99.90
13642;DHT22;6894;52.196;9.904;2023-07-22T07:35:59;16.40;99.90
13642;DHT22;6894;52.196;9.904;2023-07-22T07:38:25;16.40;99.90
13642;DHT22;6894;52.196;9.904;2023-07-22T07:40:56;16.30;99.90
13642;DHT22;6894;52.196;9.904;2023-07-22T07:43:23;16.30;99.90
13642;DHT22;6894;52.196;9.904;2023-07-22T07:45:50;16.40;99.90
13642;DHT22;6894;52.196;9.904;2023-07-22T07:48:17;16.50;99.90
13642;DHT22;6894;52.196;9.904;2023-07-22T07:50:43;16.60;99.90
13642;DHT22;6894;52.196;9.904;2023-07-22T07:53:10;16.70;99.90
13642;DHT22;6894;52.196;9.904;2023-07-22T07:55:37;16.80;99.90
13642;DHT22;6894;52.196;9.904;2023-07-22T07:58:05;17.00;99.90
13642;DHT22;6894;52.196;9.904;2023-07-22T08:00:31;17.10;99.90
13642;DHT22;6894;52.196;9.904;2023-07-22T08:02:59;17.30;99.90
13642;DHT22;6894;52.196;9.904;2023-07-22T08:05:25;17.20;99.90
13642;DHT22;6894;52.196;9.904;2023-07-22T08:07:52;17.10;99.90
13642;DHT22;6894;52.196;9.904;2023-07-22T08:10:19;17.10;99.90
13642;DHT22;6894;52.196;9.904;2023-07-22T08:12:45;17.80;99.90
13642;DHT22;6894;52.196;9.904;2023-07-22T08:15:13;17.10;99.90
13642;DHT22;6894;52.196;9.904;2023-07-22T08:17:40;17.00;99.90
13642;DHT22;6894;52.196;9.904;2023-07-22T08:20:07;17.10;99.90
13642;DHT22;6894;52.196;9.904;2023-07-22T08:22:35;17.20;99.90
13642;DHT22;6894;52.196;9.904;2023-07-22T08:25:02;17.20;99.90
13642;DHT22;6894;52.196;9.904;2023-07-22T08:27:29;17.30;99.90
13642;DHT22;6894;52.196;9.904;2023-07-22T08:29:56;17.40;99.90
13642;DHT22;6894;52.196;9.904;2023-07-22T08:32:24;17.50;99.90
13642;DHT22;6894;52.196;9.904;2023-07-22T08:34:51;17.60;99.90
13642;DHT22;6894;52.196;9.904;2023-07-22T08:37:17;17.80;99.90
13642;DHT22;6894;52.196;9.904;2023-07-22T08:39:44;18.00;99.90
13642;DHT22;6894;52.196;9.904;2023-07-22T08:42:11;18.40;99.90
13642;DHT22;6894;52.196;9.904;2023-07-22T08:44:43;18.60;99.90
13642;DHT22;6894;52.196;9.904;2023-07-22T08:47:14;18.70;99.90
13642;DHT22;6894;52.196;9.904;2023-07-22T08:49:46;18.90;99.90
13642;DHT22;6894;52.196;9.904;2023-07-22T08:52:17;19.20;99.90
13642;DHT22;6894;52.196;9.904;2023-07-22T08:54:44;19.40;99.90
13642;DHT22;6894;52.196;9.904;2023-07-22T08:57:11;19.50;99.90
13642;DHT22;6894;52.196;9.904;2023-07-22T08:59:38;19.50;99.90
13642;DHT22;6894;52.196;9.904;2023-07-22T09:02:08;19.20;99.90
13642;DHT22;6894;52.196;9.904;2023-07-22T09:04:36;19.00;99.90
13642;DHT22;6894;52.196;9.904;2023-07-22T09:07:05;18.80;99.90
13642;DHT22;6894;52.196;9.904;2023-07-22T09:09:33;18.60;99.90
13642;DHT22;6894;52.196;9.904;2023-07-22T09:12:01;18.90;99.90
13642;DHT22;6894;52.196;9.904;2023-07-22T09:14:29;19.20;99.90
13642;DHT22;6894;52.196;9.904;2023-07-22T09:16:57;19.30;99.90
13642;DHT22;6894;52.196;9.904;2023-07-22T09:19:24;19.50;99.90
13642;DHT22;6894;52.196;9.904;2023-07-22T09:21:51;19.40;99.90
13642;DHT22;6894;52.196;9.904;2023-07-22T09:24:23;19.60;99.90
13642;DHT22;6894;52.196;9.904;2023-07-22T09:26:51;19.60;99.90
13642;DHT22;6894;52.196;9.904;2023-07-22T09:29:18;19.80;99.90
13642;DHT22;6894;52.196;9.904;2023-07-22T09:31:50;19.90;99.90
13642;DHT22;6894;52.196;9.904;2023-07-22T09:34:17;20.10;99.90
13642;DHT22;6894;52.196;9.904;2023-07-22T09:36:50;20.10;99.90
13642;DHT22;6894;52.196;9.904;2023-07-22T09:39:17;20.40;99.90
13642;DHT22;6894;52.196;9.904;2023-07-22T09:41:45;20.60;99.90
13642;DHT22;6894;52.196;9.904;2023-07-22T09:44:12;20.50;99.90
13642;DHT22;6894;52.196;9.904;2023-07-22T09:46:39;20.80;99.90
13642;DHT22;6894;52.196;9.904;2023-07-22T09:49:08;20.90;99.90
13642;DHT22;6894;52.196;9.904;2023-07-22T09:51:36;21.10;99.90
13642;DHT22;6894;52.196;9.904;2023-07-22T09:54:04;20.40;99.90
13642;DHT22;6894;52.196;9.904;2023-07-22T09:56:31;20.40;99.90
13642;DHT22;6894;52.196;9.904;2023-07-22T09:59:04;20.80;99.90
13642;DHT22;6894;52.196;9.904;2023-07-22T10:01:31;20.80;99.90
13642;DHT22;6894;52.196;9.904;2023-07-22T10:03:59;21.00;99.90
13642;DHT22;6894;52.196;9.904;2023-07-22T10:06:28;21.10;99.90
13642;DHT22;6894;52.196;9.904;2023-07-22T10:08:55;21.20;99.90
13642;DHT22;6894;52.196;9.904;2023-07-22T10:11:30;21.00;99.90
13642;DHT22;6894;52.196;9.904;2023-07-22T10:14:01;21.00;99.90
13642;DHT22;6894;52.196;9.904;2023-07-22T10:16:28;20.80;99.90
13642;DHT22;6894;52.196;9.904;2023-07-22T10:18:57;20.90;99.90
13642;DHT22;6894;52.196;9.904;2023-07-22T10:21:24;20.80;99.90
13642;DHT22;6894;52.196;9.904;2023-07-22T10:23:51;20.50;99.90
13642;DHT22;6894;52.196;9.904;2023-07-22T10:26:19;20.30;99.90
13642;DHT22;6894;52.196;9.904;2023-07-22T10:28:47;20.30;99.90
13642;DHT22;6894;52.196;9.904;2023-07-22T10:31:15;20.40;99.90
13642;DHT22;6894;52.196;9.904;2023-07-22T10:33:45;20.50;99.90
13642;DHT22;6894;52.196;9.904;2023-07-22T10:36:14;20.50;99.90
13642;DHT22;6894;52.196;9.904;2023-07-22T10:38:41;20.60;99.90
13642;DHT22;6894;52.196;9.904;2023-07-22T10:41:12;20.40;99.90
13642;DHT22;6894;52.196;9.904;2023-07-22T10:43:39;20.50;99.90
13642;DHT22;6894;52.196;9.904;2023-07-22T10:46:09;20.50;99.90
13642;DHT22;6894;52.196;9.904;2023-07-22T10:48:38;20.70;99.90
13642;DHT22;6894;52.196;9.904;2023-07-22T10:51:09;20.70;99.90
13642;DHT22;6894;52.196;9.904;2023-07-22T10:53:40;20.80;99.90
13642;DHT22;6894;52.196;9.904;2023-07-22T10:56:13;21.10;99.90
13642;DHT22;6894;52.196;9.904;2023-07-22T10:58:56;21.70;99.90
13642;DHT22;6894;52.196;9.904;2023-07-22T11:01:24;21.70;99.90
13642;DHT22;6894;52.196;9.904;2023-07-22T11:04:11;21.80;99.90
13642;DHT22;6894;52.196;9.904;2023-07-22T11:06:39;22.00;99.90
13642;DHT22;6894;52.196;9.904;2023-07-22T11:09:07;21.90;99.90
13642;DHT22;6894;52.196;9.904;2023-07-22T11:11:55;21.80;99.90
13642;DHT22;6894;52.196;9.904;2023-07-22T11:14:23;21.70;99.90
13642;DHT22;6894;52.196;9.904;2023-07-22T11:16:50;22.00;99.90
13642;DHT22;6894;52.196;9.904;2023-07-22T11:19:21;22.10;99.90
13642;DHT22;6894;52.196;9.904;2023-07-22T11:21:49;21.90;99.90
13642;DHT22;6894;52.196;9.904;2023-07-22T11:24:17;21.80;99.90
13642;DHT22;6894;52.196;9.904;2023-07-22T11:26:45;22.00;99.90
13642;DHT22;6894;52.196;9.904;2023-07-22T11:29:12;22.10;99.90
13642;DHT22;6894;52.196;9.904;2023-07-22T11:31:42;22.10;99.90
13642;DHT22;6894;52.196;9.904;2023-07-22T11:34:10;22.00;99.90
13642;DHT22;6894;52.196;9.904;2023-07-22T11:36:39;22.10;99.90
13642;DHT22;6894;52.196;9.904;2023-07-22T11:39:07;22.20;99.90
13642;DHT22;6894;52.196;9.904;2023-07-22T11:41:34;22.30;99.90
13642;DHT22;6894;52.196;9.904;2023-07-22T11:44:02;22.50;99.90
13642;DHT22;6894;52.196;9.904;2023-07-22T11:46:34;22.50;99.90
13642;DHT22;6894;52.196;9.904;2023-07-22T11:49:02;22.20;99.90
13642;DHT22;6894;52.196;9.904;2023-07-22T11:51:29;22.20;99.90
13642;DHT22;6894;52.196;9.904;2023-07-22T11:53:57;22.20;99.90
13642;DHT22;6894;52.196;9.904;2023-07-22T11:56:26;22.30;99.90
13642;DHT22;6894;52.196;9.904;2023-07-22T11:58:54;22.40;99.90
13642;DHT22;6894;52.196;9.904;2023-07-22T12:01:21;22.50;99.90
13642;DHT22;6894;52.196;9.904;2023-07-22T12:03:48;22.50;99.90
13642;DHT22;6894;52.196;9.904;2023-07-22T12:06:15;22.40;99.90
13642;DHT22;6894;52.196;9.904;2023-07-22T12:08:46;22.50;99.90
13642;DHT22;6894;52.196;9.904;2023-07-22T12:11:18;22.60;99.90
13642;DHT22;6894;52.196;9.904;2023-07-22T12:13:45;22.70;99.90
13642;DHT22;6894;52.196;9.904;2023-07-22T12:16:21;22.60;99.90
13642;DHT22;6894;52.196;9.904;2023-07-22T12:18:49;23.10;99.90
13642;DHT22;6894;52.196;9.904;2023-07-22T12:21:15;23.40;99.90
13642;DHT22;6894;52.196;9.904;2023-07-22T12:23:43;23.70;99.90
13642;DHT22;6894;52.196;9.904;2023-07-22T12:26:09;23.80;99.90
13642;DHT22;6894;52.196;9.904;2023-07-22T12:28:37;23.70;99.90
13642;DHT22;6894;52.196;9.904;2023-07-22T12:31:04;23.50;99.90
13642;DHT22;6894;52.196;9.904;2023-07-22T12:33:31;23.50;99.90
13642;DHT22;6894;52.196;9.904;2023-07-22T12:35:57;23.40;99.90
13642;DHT22;6894;52.196;9.904;2023-07-22T12:38:24;23.50;99.90
13642;DHT22;6894;52.196;9.904;2023-07-22T12:40:51;23.60;99.90
13642;DHT22;6894;52.196;9.904;2023-07-22T12:43:18;23.60;99.90
13642;DHT22;6894;52.196;9.904;2023-07-22T12:45:46;23.40;99.90
13642;DHT22;6894;52.196;9.904;2023-07-22T12:48:12;23.40;99.90
13642;DHT22;6894;52.196;9.904;2023-07-22T12:50:39;23.10;99.90
13642;DHT22;6894;52.196;9.904;2023-07-22T12:53:06;22.90;99.90
13642;DHT22;6894;52.196;9.904;2023-07-22T12:55:33;22.60;99.90
13642;DHT22;6894;52.196;9.904;2023-07-22T12:58:01;22.70;99.90
13642;DHT22;6894;52.196;9.904;2023-07-22T13:00:28;22.90;99.90
13642;DHT22;6894;52.196;9.904;2023-07-22T13:02:56;23.00;99.90
13642;DHT22;6894;52.196;9.904;2023-07-22T13:05:23;22.70;99.90
13642;DHT22;6894;52.196;9.904;2023-07-22T13:07:50;22.60;99.90
13642;DHT22;6894;52.196;9.904;2023-07-22T13:10:22;22.40;99.90
13642;DHT22;6894;52.196;9.904;2023-07-22T13:12:50;22.30;99.90
13642;DHT22;6894;52.196;9.904;2023-07-22T13:15:17;22.10;99.90
13642;DHT22;6894;52.196;9.904;2023-07-22T13:17:44;22.10;99.90
13642;DHT22;6894;52.196;9.904;2023-07-22T13:20:12;22.10;99.90
13642;DHT22;6894;52.196;9.904;2023-07-22T13:22:39;22.10;99.90
13642;DHT22;6894;52.196;9.904;2023-07-22T13:25:07;22.30;99.90
13642;DHT22;6894;52.196;9.904;2023-07-22T13:27:34;22.60;99.90
13642;DHT22;6894;52.196;9.904;2023-07-22T13:30:04;23.00;99.90
13642;DHT22;6894;52.196;9.904;2023-07-22T13:32:31;23.60;99.90
13642;DHT22;6894;52.196;9.904;2023-07-22T13:34:58;24.00;99.90
13642;DHT22;6894;52.196;9.904;2023-07-22T13:37:26;24.20;99.90
13642;DHT22;6894;52.196;9.904;2023-07-22T13:39:52;24.10;99.90
13642;DHT22;6894;52.196;9.904;2023-07-22T13:42:20;23.80;99.90
13642;DHT22;6894;52.196;9.904;2023-07-22T13:44:47;23.60;99.90
13642;DHT22;6894;52.196;9.904;2023-07-22T13:47:14;23.70;99.90
13642;DHT22;6894;52.196;9.904;2023-07-22T13:49:40;23.40;99.90
13642;DHT22;6894;52.196;9.904;2023-07-22T13:52:07;23.40;99.90
13642;DHT22;6894;52.196;9.904;2023-07-22T13:54:35;23.60;99.90
13642;DHT22;6894;52.196;9.904;2023-07-22T13:57:02;23.80;99.90
13642;DHT22;6894;52.196;9.904;2023-07-22T13:59:29;23.80;99.90
13642;DHT22;6894;52.196;9.904;2023-07-22T14:01:55;23.80;99.90
13642;DHT22;6894;52.196;9.904;2023-07-22T14:04:22;23.70;99.90
13642;DHT22;6894;52.196;9.904;2023-07-22T14:06:49;23.80;99.90
13642;DHT22;6894;52.196;9.904;2023-07-22T14:09:16;23.70;99.90
13642;DHT22;6894;52.196;9.904;2023-07-22T14:11:44;23.60;99.90
13642;DHT22;6894;52.196;9.904;2023-07-22T14:14:11;23.50;99.90
13642;DHT22;6894;52.196;9.904;2023-07-22T14:16:37;23.50;99.90
13642;DHT22;6894;52.196;9.904;2023-07-22T14:19:04;23.70;99.90
13642;DHT22;6894;52.196;9.904;2023-07-22T14:21:32;23.70;99.90
13642;DHT22;6894;52.196;9.904;2023-07-22T14:23:59;23.70;99.90
13642;DHT22;6894;52.196;9.904;2023-07-22T14:26:25;23.70;99.90
13642;DHT22;6894;52.196;9.904;2023-07-22T14:28:53;23.60;99.90
13642;DHT22;6894;52.196;9.904;2023-07-22T14:31:20;23.40;99.90
13642;DHT22;6894;52.196;9.904;2023-07-22T14:33:47;23.20;99.90
13642;DHT22;6894;52.196;9.904;2023-07-22T14:36:13;23.20;99.90
13642;DHT22;6894;52.196;9.904;2023-07-22T14:38:40;23.20;99.90
13642;DHT22;6894;52.196;9.904;2023-07-22T14:41:07;23.00;99.90
13642;DHT22;6894;52.196;9.904;2023-07-22T14:43:34;23.00;99.90
13642;DHT22;6894;52.196;9.904;2023-07-22T14:46:02;22.90;99.90
13642;DHT22;6894;52.196;9.904;2023-07-22T14:48:29;22.90;99.90
13642;DHT22;6894;52.196;9.904;2023-07-22T14:50:56;22.80;99.90
13642;DHT22;6894;52.196;9.904;2023-07-22T14:53:22;22.90;99.90
13642;DHT22;6894;52.196;9.904;2023-07-22T14:55:49;22.90;99.90
13642;DHT22;6894;52.196;9.904;2023-07-22T14:58:16;23.00;99.90
13642;DHT22;6894;52.196;9.904;2023-07-22T15:00:42;23.00;99.90
13642;DHT22;6894;52.196;9.904;2023-07-22T15:03:10;22.90;99.90
13642;DHT22;6894;52.196;9.904;2023-07-22T15:05:37;22.90;99.90
13642;DHT22;6894;52.196;9.904;2023-07-22T15:08:04;22.90;99.90
13642;DHT22;6894;52.196;9.904;2023-07-22T15:10:30;22.90;99.90
13642;DHT22;6894;52.196;9.904;2023-07-22T15:12:57;23.10;99.90
13642;DHT22;6894;52.196;9.904;2023-07-22T15:15:24;23.20;99.90
13642;DHT22;6894;52.196;9.904;2023-07-22T15:17:50;23.30;99.90
13642;DHT22;6894;52.196;9.904;2023-07-22T15:20:19;23.30;99.90
13642;DHT22;6894;52.196;9.904;2023-07-22T15:22:45;23.40;99.90
13642;DHT22;6894;52.196;9.904;2023-07-22T15:25:12;23.50;99.90
13642;DHT22;6894;52.196;9.904;2023-07-22T15:27:39;23.50;99.90
13642;DHT22;6894;52.196;9.904;2023-07-22T15:30:07;23.40;99.90
13642;DHT22;6894;52.196;9.904;2023-07-22T15:32:33;23.40;99.90
13642;DHT22;6894;52.196;9.904;2023-07-22T15:35:00;23.40;99.90
13642;DHT22;6894;52.196;9.904;2023-07-22T15:37:28;23.40;99.90
13642;DHT22;6894;52.196;9.904;2023-07-22T15:39:55;23.20;99.90
13642;DHT22;6894;52.196;9.904;2023-07-22T15:42:21;23.20;99.90
13642;DHT22;6894;52.196;9.904;2023-07-22T15:44:48;23.40;99.90
13642;DHT22;6894;52.196;9.904;2023-07-22T15:47:15;23.40;99.90